createdAt,value
2019-04-29T00:00:39.202Z,0.00
2019-04-29T00:01:39.130Z,0.00
2019-04-29T00:02:39.041Z,0.00
2019-04-29T00:03:38.956Z,0.00
2019-04-29T00:04:38.891Z,0.00
2019-04-29T00:05:38.791Z,0.00
2019-04-29T00:06:38.716Z,0.00
2019-04-29T00:07:38.630Z,0.00
2019-04-29T00:08:38.553Z,0.00
2019-04-29T00:09:38.466Z,0.00
2019-04-29T00:10:38.379Z,0.00
2019-04-29T00:11:38.304Z,0.00
2019-04-29T00:12:38.216Z,0.00
2019-04-29T00:13:38.133Z,0.00
2019-04-29T00:14:38.054Z,0.00
2019-04-29T00:15:37.981Z,0.00
2019-04-29T00:16:37.881Z,0.00
2019-04-29T00:17:37.805Z,0.00
2019-04-29T00:18:37.718Z,0.00
2019-04-29T00:19:37.644Z,0.00
2019-04-29T00:20:37.555Z,0.00
2019-04-29T00:21:37.469Z,0.00
2019-04-29T00:22:37.393Z,0.00
2019-04-29T00:23:37.306Z,0.00
2019-04-29T00:24:37.230Z,0.00
2019-04-29T00:25:37.143Z,0.00
2019-04-29T00:26:37.055Z,0.00
2019-04-29T00:27:36.982Z,0.00
2019-04-29T00:28:36.894Z,0.00
2019-04-29T00:29:36.806Z,0.00
2019-04-29T00:30:36.731Z,0.00
2019-04-29T00:31:36.645Z,0.00
2019-04-29T00:32:36.568Z,0.00
2019-04-29T00:33:36.488Z,0.00
2019-04-29T00:34:36.395Z,0.00
2019-04-29T00:35:36.320Z,0.00
2019-04-29T00:36:36.238Z,0.00
2019-04-29T00:37:36.157Z,0.00
2019-04-29T00:38:36.069Z,0.00
2019-04-29T00:39:35.982Z,0.00
2019-04-29T00:40:35.907Z,0.00
2019-04-29T00:41:35.819Z,0.00
2019-04-29T00:42:35.737Z,0.00
2019-04-29T00:43:35.657Z,0.00
2019-04-29T00:44:35.572Z,0.00
2019-04-29T00:45:35.502Z,0.00
2019-04-29T00:46:35.407Z,0.00
2019-04-29T00:47:35.320Z,0.00
2019-04-29T00:48:35.245Z,0.00
2019-04-29T00:49:35.158Z,0.00
2019-04-29T00:50:35.151Z,0.00
2019-04-29T00:51:34.996Z,0.00
2019-04-29T00:52:34.908Z,0.00
2019-04-29T00:53:34.833Z,0.00
2019-04-29T00:54:34.747Z,0.00
2019-04-29T00:55:34.671Z,0.00
2019-04-29T00:56:34.583Z,0.00
2019-04-29T00:57:34.500Z,0.00
2019-04-29T00:58:34.422Z,0.00
2019-04-29T00:59:34.334Z,0.00
2019-04-29T01:00:34.247Z,0.00
2019-04-29T01:01:34.173Z,0.00
2019-04-29T01:02:34.084Z,0.00
2019-04-29T01:03:33.998Z,0.00
2019-04-29T01:04:33.922Z,0.00
2019-04-29T01:05:33.835Z,0.00
2019-04-29T01:06:33.759Z,0.00
2019-04-29T01:07:33.672Z,0.00
2019-04-29T01:08:33.586Z,0.00
2019-04-29T01:09:33.509Z,0.00
2019-04-29T01:10:33.424Z,0.00
2019-04-29T01:11:33.337Z,0.00
2019-04-29T01:12:33.261Z,0.00
2019-04-29T01:13:33.173Z,0.00
2019-04-29T01:14:33.099Z,0.00
2019-04-29T01:15:33.010Z,0.00
2019-04-29T01:16:32.924Z,0.00
2019-04-29T01:17:32.924Z,0.00
2019-04-29T01:18:32.767Z,0.00
2019-04-29T01:19:32.674Z,0.00
2019-04-29T01:20:32.602Z,0.00
2019-04-29T01:21:32.524Z,0.00
2019-04-29T01:22:32.436Z,0.00
2019-04-29T01:23:32.359Z,0.00
2019-04-29T01:24:32.262Z,0.00
2019-04-29T01:25:32.192Z,0.00
2019-04-29T01:26:32.105Z,0.00
2019-04-29T01:27:32.012Z,0.00
2019-04-29T01:28:31.936Z,0.00
2019-04-29T01:29:31.855Z,0.00
2019-04-29T01:30:31.778Z,0.00
2019-04-29T01:31:31.687Z,0.00
2019-04-29T01:32:31.606Z,0.00
2019-04-29T01:33:31.539Z,0.00
2019-04-29T01:34:31.440Z,0.00
2019-04-29T01:35:31.353Z,0.00
2019-04-29T01:36:31.276Z,0.00
2019-04-29T01:37:31.187Z,0.00
2019-04-29T01:38:31.112Z,0.00
2019-04-29T01:39:31.040Z,0.00
2019-04-29T01:40:30.952Z,0.00
2019-04-29T01:41:30.863Z,0.00
2019-04-29T01:42:30.777Z,0.00
2019-04-29T01:43:30.690Z,0.00
2019-04-29T01:44:30.613Z,0.00
2019-04-29T01:45:30.528Z,0.00
2019-04-29T01:46:30.455Z,0.00
2019-04-29T01:47:30.364Z,0.00
2019-04-29T01:48:30.277Z,0.00
2019-04-29T01:49:30.191Z,0.00
2019-04-29T01:50:30.115Z,0.00
2019-04-29T01:51:30.030Z,0.00
2019-04-29T01:52:29.952Z,0.00
2019-04-29T01:53:29.864Z,0.00
2019-04-29T01:54:29.778Z,0.00
2019-04-29T01:55:29.702Z,0.00
2019-04-29T01:56:29.616Z,0.00
2019-04-29T01:57:29.528Z,0.00
2019-04-29T01:58:29.457Z,0.00
2019-04-29T01:59:29.365Z,0.00
2019-04-29T02:00:29.291Z,0.00
2019-04-29T02:01:29.208Z,0.00
2019-04-29T02:02:29.116Z,0.00
2019-04-29T02:03:29.054Z,0.00
2019-04-29T02:04:28.956Z,0.00
2019-04-29T02:05:28.868Z,0.00
2019-04-29T02:06:28.791Z,0.00
2019-04-29T02:07:28.705Z,0.00
2019-04-29T02:08:28.617Z,0.00
2019-04-29T02:09:28.554Z,0.00
2019-04-29T02:10:28.455Z,0.00
2019-04-29T02:11:28.370Z,0.00
2019-04-29T02:12:28.292Z,0.00
2019-04-29T02:13:28.205Z,0.00
2019-04-29T02:14:28.129Z,0.00
2019-04-29T02:15:28.042Z,0.00
2019-04-29T02:16:27.962Z,0.00
2019-04-29T02:17:27.886Z,0.00
2019-04-29T02:18:27.796Z,0.00
2019-04-29T02:19:27.717Z,0.00
2019-04-29T02:20:27.630Z,0.00
2019-04-29T02:21:27.555Z,0.00
2019-04-29T02:22:27.455Z,0.00
2019-04-29T02:23:27.381Z,0.00
2019-04-29T02:24:27.293Z,0.00
2019-04-29T02:25:27.210Z,0.00
2019-04-29T02:26:27.134Z,0.00
2019-04-29T02:27:27.043Z,0.00
2019-04-29T02:28:26.968Z,0.00
2019-04-29T02:29:26.881Z,0.00
2019-04-29T02:30:26.809Z,0.00
2019-04-29T02:31:26.720Z,0.00
2019-04-29T02:32:26.638Z,0.00
2019-04-29T02:33:26.561Z,0.00
2019-04-29T02:34:26.470Z,0.00
2019-04-29T02:35:26.383Z,0.00
2019-04-29T02:36:29.711Z,0.00
2019-04-29T02:37:26.219Z,0.00
2019-04-29T02:38:26.135Z,0.00
2019-04-29T02:39:26.044Z,0.00
2019-04-29T02:40:25.971Z,0.00
2019-04-29T02:41:25.883Z,0.00
2019-04-29T02:42:25.795Z,0.00
2019-04-29T02:43:25.719Z,0.00
2019-04-29T02:44:25.651Z,0.00
2019-04-29T02:45:25.545Z,0.00
2019-04-29T02:46:25.471Z,0.00
2019-04-29T02:47:25.391Z,0.00
2019-04-29T02:48:28.648Z,0.00
2019-04-29T02:49:25.235Z,0.00
2019-04-29T02:50:25.135Z,0.00
2019-04-29T02:51:25.048Z,0.00
2019-04-29T02:52:24.973Z,0.00
2019-04-29T02:53:24.884Z,0.00
2019-04-29T02:54:24.810Z,0.00
2019-04-29T02:55:24.723Z,0.00
2019-04-29T02:56:24.635Z,0.00
2019-04-29T02:57:24.567Z,0.00
2019-04-29T02:58:24.473Z,0.00
2019-04-29T02:59:24.386Z,0.00
2019-04-29T03:00:24.312Z,0.00
2019-04-29T03:01:24.261Z,0.00
2019-04-29T03:02:24.135Z,0.00
2019-04-29T03:03:24.087Z,0.00
2019-04-29T03:04:23.985Z,0.00
2019-04-29T03:05:23.891Z,0.00
2019-04-29T03:06:23.825Z,0.00
2019-04-29T03:07:23.738Z,0.00
2019-04-29T03:08:23.637Z,0.00
2019-04-29T03:09:23.562Z,0.00
2019-04-29T03:10:23.486Z,0.00
2019-04-29T03:11:23.387Z,0.00
2019-04-29T03:12:23.317Z,0.00
2019-04-29T03:13:23.321Z,4.00
2019-04-29T03:14:23.135Z,0.00
2019-04-29T03:15:23.064Z,4.00
2019-04-29T03:16:22.975Z,0.00
2019-04-29T03:17:22.888Z,0.00
2019-04-29T03:18:22.813Z,4.00
2019-04-29T03:19:22.739Z,4.00
2019-04-29T03:20:22.649Z,4.00
2019-04-29T03:21:22.564Z,4.00
2019-04-29T03:22:22.482Z,8.00
2019-04-29T03:23:22.414Z,8.00
2019-04-29T03:24:22.313Z,8.00
2019-04-29T03:25:22.233Z,8.00
2019-04-29T03:26:22.164Z,12.00
2019-04-29T03:27:22.063Z,12.00
2019-04-29T03:28:21.975Z,16.00
2019-04-29T03:29:21.900Z,16.00
2019-04-29T03:30:21.817Z,16.00
2019-04-29T03:31:21.743Z,20.00
2019-04-29T03:32:21.651Z,20.00
2019-04-29T03:33:21.565Z,24.00
2019-04-29T03:34:21.524Z,28.00
2019-04-29T03:35:21.433Z,32.00
2019-04-29T03:36:21.313Z,36.00
2019-04-29T03:37:21.228Z,36.00
2019-04-29T03:38:21.150Z,36.00
2019-04-29T03:39:21.076Z,36.00
2019-04-29T03:40:20.981Z,44.00
2019-04-29T03:41:20.902Z,44.00
2019-04-29T03:42:20.814Z,44.00
2019-04-29T03:43:20.726Z,44.00
2019-04-29T03:44:20.655Z,52.00
2019-04-29T03:45:20.564Z,56.00
2019-04-29T03:46:20.478Z,64.00
2019-04-29T03:47:20.403Z,68.00
2019-04-29T03:48:20.316Z,76.00
2019-04-29T03:49:20.230Z,84.00
2019-04-29T03:50:20.168Z,80.00
2019-04-29T03:51:20.066Z,92.00
2019-04-29T03:52:19.978Z,96.00
2019-04-29T03:53:19.909Z,96.00
2019-04-29T03:54:19.816Z,108.00
2019-04-29T03:55:37.605Z,116.00
2019-04-29T03:56:19.653Z,128.00
2019-04-29T03:57:19.568Z,148.00
2019-04-29T03:58:19.479Z,144.00
2019-04-29T03:59:19.404Z,140.00
2019-04-29T04:00:19.316Z,144.00
2019-04-29T04:01:19.229Z,144.00
2019-04-29T04:02:19.156Z,168.00
2019-04-29T04:03:19.068Z,196.00
2019-04-29T04:04:18.991Z,208.00
2019-04-29T04:05:18.904Z,164.00
2019-04-29T04:06:18.818Z,172.00
2019-04-29T04:07:18.730Z,204.00
2019-04-29T04:08:18.666Z,208.00
2019-04-29T04:09:18.572Z,244.00
2019-04-29T04:10:18.492Z,284.00
2019-04-29T04:11:18.408Z,236.00
2019-04-29T04:12:18.319Z,228.00
2019-04-29T04:13:18.238Z,224.00
2019-04-29T04:14:18.154Z,232.00
2019-04-29T04:15:18.069Z,256.00
2019-04-29T04:16:17.982Z,312.00
2019-04-29T04:17:20.399Z,356.00
2019-04-29T04:18:17.818Z,440.00
2019-04-29T04:19:17.743Z,384.00
2019-04-29T04:20:17.657Z,424.00
2019-04-29T04:21:17.573Z,552.00
2019-04-29T04:22:17.483Z,552.00
2019-04-29T04:23:17.413Z,504.00
2019-04-29T04:24:17.323Z,584.00
2019-04-29T04:25:17.246Z,612.00
2019-04-29T04:26:17.156Z,564.00
2019-04-29T04:27:17.073Z,516.00
2019-04-29T04:28:16.996Z,460.00
2019-04-29T04:29:16.908Z,416.00
2019-04-29T04:30:16.821Z,432.00
2019-04-29T04:31:16.747Z,444.00
2019-04-29T04:32:16.657Z,500.00
2019-04-29T04:33:16.570Z,524.00
2019-04-29T04:34:16.495Z,476.00
2019-04-29T04:35:16.409Z,304.00
2019-04-29T04:36:16.322Z,264.00
2019-04-29T04:37:16.245Z,272.00
2019-04-29T04:38:16.162Z,332.00
2019-04-29T04:39:16.078Z,412.00
2019-04-29T04:40:16.054Z,496.00
2019-04-29T04:41:15.908Z,408.00
2019-04-29T04:42:15.827Z,512.00
2019-04-29T04:43:15.745Z,620.00
2019-04-29T04:44:15.659Z,644.00
2019-04-29T04:45:15.579Z,596.00
2019-04-29T04:46:15.496Z,680.00
2019-04-29T04:47:15.409Z,524.00
2019-04-29T04:48:15.322Z,684.00
2019-04-29T04:49:15.935Z,848.00
2019-04-29T04:50:15.159Z,852.00
2019-04-29T04:51:15.072Z,820.00
2019-04-29T04:52:14.999Z,972.00
2019-04-29T04:53:14.911Z,932.00
2019-04-29T04:54:14.834Z,1152.00
2019-04-29T04:55:14.800Z,1224.00
2019-04-29T04:56:14.671Z,976.00
2019-04-29T04:57:14.573Z,1180.00
2019-04-29T04:58:14.497Z,992.00
2019-04-29T04:59:14.410Z,1400.00
2019-04-29T05:00:14.341Z,1220.00
2019-04-29T05:01:14.247Z,1348.00
2019-04-29T05:02:14.160Z,1052.00
2019-04-29T05:03:14.088Z,992.00
2019-04-29T05:04:13.998Z,1024.00
2019-04-29T05:05:13.910Z,952.00
2019-04-29T05:06:13.835Z,1172.00
2019-04-29T05:07:13.750Z,1364.00
2019-04-29T05:08:13.661Z,1196.00
2019-04-29T05:09:13.586Z,800.00
2019-04-29T05:10:13.500Z,632.00
2019-04-29T05:11:13.414Z,684.00
2019-04-29T05:12:14.198Z,976.00
2019-04-29T05:13:26.912Z,1288.00
2019-04-29T05:14:13.162Z,1324.00
2019-04-29T05:15:13.087Z,1132.00
2019-04-29T05:16:12.999Z,1328.00
2019-04-29T05:17:12.924Z,1136.00
2019-04-29T05:18:12.840Z,1256.00
2019-04-29T05:19:12.755Z,1340.00
2019-04-29T05:20:12.674Z,1164.00
2019-04-29T05:21:12.587Z,1040.00
2019-04-29T05:22:12.503Z,1056.00
2019-04-29T05:23:12.425Z,888.00
2019-04-29T05:24:12.337Z,1060.00
2019-04-29T05:25:12.251Z,1384.00
2019-04-29T05:26:12.176Z,1212.00
2019-04-29T05:27:12.087Z,1416.00
2019-04-29T05:28:12.000Z,1520.00
2019-04-29T05:29:11.926Z,1360.00
2019-04-29T05:30:11.852Z,1540.00
2019-04-29T05:31:11.750Z,1832.00
2019-04-29T05:32:11.676Z,1968.00
2019-04-29T05:33:11.589Z,2140.00
2019-04-29T05:34:11.513Z,2468.00
2019-04-29T05:35:11.429Z,1928.00
2019-04-29T05:36:11.352Z,1728.00
2019-04-29T05:37:11.264Z,1940.00
2019-04-29T05:38:11.178Z,2192.00
2019-04-29T05:39:11.089Z,2912.00
2019-04-29T05:40:11.014Z,2652.00
2019-04-29T05:41:10.927Z,2124.00
2019-04-29T05:42:16.237Z,1904.00
2019-04-29T05:43:10.764Z,1640.00
2019-04-29T05:44:10.677Z,1516.00
2019-04-29T05:45:10.589Z,1648.00
2019-04-29T05:46:10.514Z,1656.00
2019-04-29T05:47:10.428Z,2100.00
2019-04-29T05:48:10.352Z,1592.00
2019-04-29T05:49:10.264Z,1244.00
2019-04-29T05:50:11.767Z,1072.00
2019-04-29T05:51:10.104Z,1004.00
2019-04-29T05:52:10.016Z,1008.00
2019-04-29T05:53:11.629Z,1240.00
2019-04-29T05:54:09.856Z,948.00
2019-04-29T05:55:13.608Z,912.00
2019-04-29T05:56:09.680Z,1032.00
2019-04-29T05:57:09.604Z,848.00
2019-04-29T05:58:09.516Z,868.00
2019-04-29T05:59:12.806Z,876.00
2019-04-29T06:00:09.358Z,1072.00
2019-04-29T06:01:09.267Z,988.00
2019-04-29T06:02:09.179Z,916.00
2019-04-29T06:03:09.104Z,784.00
2019-04-29T06:04:11.724Z,592.00
2019-04-29T06:05:08.929Z,688.00
2019-04-29T06:06:12.025Z,536.00
2019-04-29T06:07:08.768Z,628.00
2019-04-29T06:08:08.693Z,508.00
2019-04-29T06:09:11.771Z,592.00
2019-04-29T06:10:08.517Z,764.00
2019-04-29T06:11:08.446Z,588.00
2019-04-29T06:12:08.356Z,532.00
2019-04-29T06:13:08.267Z,692.00
2019-04-29T06:14:08.192Z,700.00
2019-04-29T06:15:08.105Z,616.00
2019-04-29T06:16:08.036Z,768.00
2019-04-29T06:17:07.962Z,828.00
2019-04-29T06:18:07.856Z,1204.00
2019-04-29T06:19:07.768Z,1544.00
2019-04-29T06:20:07.693Z,1568.00
2019-04-29T06:21:09.413Z,1580.00
2019-04-29T06:22:07.519Z,1372.00
2019-04-29T06:23:07.446Z,1352.00
2019-04-29T06:24:07.357Z,1336.00
2019-04-29T06:25:07.272Z,1400.00
2019-04-29T06:26:07.195Z,1552.00
2019-04-29T06:27:07.108Z,1576.00
2019-04-29T06:28:07.022Z,1308.00
2019-04-29T06:29:06.946Z,1368.00
2019-04-29T06:30:06.858Z,1284.00
2019-04-29T06:31:06.783Z,1240.00
2019-04-29T06:32:06.694Z,1332.00
2019-04-29T06:33:06.608Z,1600.00
2019-04-29T06:34:06.642Z,1540.00
2019-04-29T06:35:06.473Z,1760.00
2019-04-29T06:36:06.357Z,1512.00
2019-04-29T06:37:06.272Z,1588.00
2019-04-29T06:38:06.198Z,2044.00
2019-04-29T06:39:06.109Z,1672.00
2019-04-29T06:40:06.034Z,1880.00
2019-04-29T06:41:09.756Z,2380.00
2019-04-29T06:42:05.863Z,3292.00
2019-04-29T06:43:05.786Z,3856.00
2019-04-29T06:44:10.176Z,3700.00
2019-04-29T06:45:05.612Z,4376.00
2019-04-29T06:46:05.534Z,3636.00
2019-04-29T06:47:05.446Z,4276.00
2019-04-29T06:48:05.371Z,4032.00
2019-04-29T06:49:10.432Z,4244.00
2019-04-29T06:50:05.209Z,3068.00
2019-04-29T06:51:05.110Z,3520.00
2019-04-29T06:52:05.036Z,3280.00
2019-04-29T06:53:04.949Z,4432.00
2019-04-29T06:54:04.859Z,2796.00
2019-04-29T06:55:04.784Z,3156.00
2019-04-29T06:56:04.697Z,3364.00
2019-04-29T06:57:04.611Z,3152.00
2019-04-29T06:58:04.536Z,3628.00
2019-04-29T06:59:07.573Z,4052.00
2019-04-29T07:00:04.372Z,4252.00
2019-04-29T07:01:04.295Z,4152.00
2019-04-29T07:02:04.198Z,4996.00
2019-04-29T07:03:04.122Z,3940.00
2019-04-29T07:04:04.037Z,4352.00
2019-04-29T07:05:03.949Z,3396.00
2019-04-29T07:06:03.874Z,3408.00
2019-04-29T07:07:03.788Z,3216.00
2019-04-29T07:08:03.701Z,2988.00
2019-04-29T07:09:03.623Z,3192.00
2019-04-29T07:10:03.537Z,3456.00
2019-04-29T07:11:03.518Z,2776.00
2019-04-29T07:12:03.376Z,2808.00
2019-04-29T07:13:03.293Z,2580.00
2019-04-29T07:14:03.205Z,2044.00
2019-04-29T07:15:03.133Z,2040.00
2019-04-29T07:16:03.037Z,1868.00
2019-04-29T07:17:05.598Z,2188.00
2019-04-29T07:18:02.876Z,3200.00
2019-04-29T07:19:02.788Z,2700.00
2019-04-29T07:20:03.309Z,2408.00
2019-04-29T07:21:02.625Z,2992.00
2019-04-29T07:22:02.551Z,2636.00
2019-04-29T07:23:02.589Z,2572.00
2019-04-29T07:24:02.377Z,3104.00
2019-04-29T07:25:02.303Z,2828.00
2019-04-29T07:26:02.213Z,2396.00
2019-04-29T07:27:02.681Z,2664.00
2019-04-29T07:28:02.050Z,2172.00
2019-04-29T07:29:01.964Z,2052.00
2019-04-29T07:30:06.035Z,2272.00
2019-04-29T07:31:03.026Z,2536.00
2019-04-29T07:32:04.752Z,2628.00
2019-04-29T07:33:01.627Z,2696.00
2019-04-29T07:34:01.551Z,2784.00
2019-04-29T07:35:01.464Z,2264.00
2019-04-29T07:36:10.756Z,2508.00
2019-04-29T07:37:01.301Z,2320.00
2019-04-29T07:38:04.490Z,2480.00
2019-04-29T07:39:01.141Z,1960.00
2019-04-29T07:40:03.721Z,1896.00
2019-04-29T07:41:00.970Z,2316.00
2019-04-29T07:42:03.147Z,2212.00
2019-04-29T07:43:02.876Z,2196.00
2019-04-29T07:44:00.740Z,2316.00
2019-04-29T07:45:00.641Z,2440.00
2019-04-29T07:46:03.852Z,2628.00
2019-04-29T07:47:02.322Z,3592.00
2019-04-29T07:48:01.805Z,2280.00
2019-04-29T07:49:01.784Z,2428.00
2019-04-29T07:50:00.282Z,2496.00
2019-04-29T07:51:04.113Z,2584.00
2019-04-29T07:52:00.066Z,2276.00
2019-04-29T07:52:59.978Z,2516.00
2019-04-29T07:53:59.892Z,2356.00
2019-04-29T07:54:59.816Z,4100.00
2019-04-29T07:56:01.844Z,4636.00
2019-04-29T07:56:59.642Z,5128.00
2019-04-29T07:57:59.567Z,4160.00
2019-04-29T07:59:03.122Z,3780.00
2019-04-29T07:59:59.393Z,5832.00
2019-04-29T08:00:59.318Z,3084.00
2019-04-29T08:01:59.904Z,4196.00
2019-04-29T08:02:59.143Z,4808.00
2019-04-29T08:03:59.067Z,4024.00
2019-04-29T08:04:58.980Z,3088.00
2019-04-29T08:05:58.905Z,2820.00
2019-04-29T08:06:58.819Z,2992.00
2019-04-29T08:07:58.735Z,2744.00
2019-04-29T08:09:03.180Z,3116.00
2019-04-29T08:09:58.568Z,3040.00
2019-04-29T08:10:58.501Z,2464.00
2019-04-29T08:11:58.418Z,2592.00
2019-04-29T08:12:58.333Z,1832.00
2019-04-29T08:13:58.246Z,2540.00
2019-04-29T08:15:07.086Z,2496.00
2019-04-29T08:15:58.069Z,2496.00
2019-04-29T08:16:57.995Z,2872.00
2019-04-29T08:18:06.361Z,2376.00
2019-04-29T08:18:57.847Z,2316.00
2019-04-29T08:20:00.636Z,2884.00
2019-04-29T08:20:57.658Z,3396.00
2019-04-29T08:21:57.581Z,2048.00
2019-04-29T08:22:58.337Z,1972.00
2019-04-29T08:23:57.421Z,2740.00
2019-04-29T08:24:57.331Z,2100.00
2019-04-29T08:26:02.113Z,1728.00
2019-04-29T08:26:57.170Z,1708.00
2019-04-29T08:27:57.082Z,1424.00
2019-04-29T08:29:00.351Z,1336.00
2019-04-29T08:29:56.920Z,1712.00
2019-04-29T08:30:56.844Z,1864.00
2019-04-29T08:32:01.877Z,2460.00
2019-04-29T08:32:56.676Z,2088.00
2019-04-29T08:33:56.583Z,1996.00
2019-04-29T08:34:58.338Z,3004.00
2019-04-29T08:35:56.421Z,3196.00
2019-04-29T08:36:56.346Z,5060.00
2019-04-29T08:37:56.258Z,4288.00
2019-04-29T08:39:08.036Z,3540.00
2019-04-29T08:40:08.579Z,3968.00
2019-04-29T08:40:56.008Z,4444.00
2019-04-29T08:41:58.837Z,4548.00
2019-04-29T08:42:55.881Z,5036.00
2019-04-29T08:43:56.547Z,4304.00
2019-04-29T08:44:59.759Z,6588.00
2019-04-29T08:45:55.597Z,6408.00
2019-04-29T08:46:55.510Z,6584.00
2019-04-29T08:47:55.445Z,5688.00
2019-04-29T08:48:55.349Z,5272.00
2019-04-29T08:49:55.259Z,5444.00
2019-04-29T08:50:55.172Z,5700.00
2019-04-29T08:51:55.098Z,5288.00
2019-04-29T08:52:55.009Z,4964.00
2019-04-29T08:53:54.923Z,4128.00
2019-04-29T08:54:55.285Z,4808.00
2019-04-29T08:55:54.760Z,5444.00
2019-04-29T08:57:02.818Z,7084.00
2019-04-29T08:57:54.599Z,7208.00
2019-04-29T08:58:54.512Z,8744.00
2019-04-29T08:59:54.435Z,11328.00
2019-04-29T09:00:55.674Z,12996.00
2019-04-29T09:01:54.262Z,13340.00
2019-04-29T09:02:54.186Z,13500.00
2019-04-29T09:03:57.900Z,13912.00
2019-04-29T09:04:54.113Z,12712.00
2019-04-29T09:06:05.055Z,13424.00
2019-04-29T09:06:53.850Z,14424.00
2019-04-29T09:07:57.252Z,15280.00
2019-04-29T09:08:55.212Z,16616.00
2019-04-29T09:09:56.330Z,16396.00
2019-04-29T09:10:53.529Z,13440.00
2019-04-29T09:11:53.450Z,8704.00
2019-04-29T09:12:53.361Z,16200.00
2019-04-29T09:13:53.277Z,11900.00
2019-04-29T09:14:53.201Z,10184.00
2019-04-29T09:15:53.114Z,10212.00
2019-04-29T09:16:53.037Z,9232.00
2019-04-29T09:17:52.955Z,9204.00
2019-04-29T09:18:52.875Z,8024.00
2019-04-29T09:19:52.787Z,7636.00
2019-04-29T09:20:52.703Z,11276.00
2019-04-29T09:21:52.626Z,9200.00
2019-04-29T09:22:52.537Z,8840.00
2019-04-29T09:23:52.464Z,9532.00
2019-04-29T09:24:52.381Z,10672.00
2019-04-29T09:26:02.373Z,9280.00
2019-04-29T09:26:52.213Z,9964.00
2019-04-29T09:27:52.139Z,12712.00
2019-04-29T09:28:52.054Z,14956.00
2019-04-29T09:29:54.203Z,11108.00
2019-04-29T09:30:51.890Z,10524.00
2019-04-29T09:31:51.806Z,10924.00
2019-04-29T09:32:51.727Z,14620.00
2019-04-29T09:33:59.701Z,9732.00
2019-04-29T09:34:51.565Z,11768.00
2019-04-29T09:35:51.479Z,11692.00
2019-04-29T09:36:51.402Z,9524.00
2019-04-29T09:37:53.923Z,11600.00
2019-04-29T09:38:51.239Z,13132.00
2019-04-29T09:39:51.165Z,12264.00
2019-04-29T09:40:54.584Z,11816.00
2019-04-29T09:41:51.003Z,11024.00
2019-04-29T09:42:51.905Z,9924.00
2019-04-29T09:43:50.828Z,10836.00
2019-04-29T09:44:50.740Z,11736.00
2019-04-29T09:45:53.831Z,12092.00
2019-04-29T09:46:50.578Z,9792.00
2019-04-29T09:47:50.504Z,10160.00
2019-04-29T09:48:50.419Z,10692.00
2019-04-29T09:49:50.344Z,8876.00
2019-04-29T09:50:50.255Z,11772.00
2019-04-29T09:51:50.179Z,10336.00
2019-04-29T09:52:50.104Z,8044.00
2019-04-29T09:53:50.017Z,7696.00
2019-04-29T09:54:49.929Z,7728.00
2019-04-29T09:55:49.854Z,7708.00
2019-04-29T09:56:49.766Z,7420.00
2019-04-29T09:57:49.685Z,7316.00
2019-04-29T09:58:49.606Z,8144.00
2019-04-29T09:59:49.517Z,8124.00
2019-04-29T10:00:49.455Z,7520.00
2019-04-29T10:01:50.398Z,8776.00
2019-04-29T10:02:49.283Z,7836.00
2019-04-29T10:03:49.194Z,8624.00
2019-04-29T10:04:56.282Z,9576.00
2019-04-29T10:05:49.030Z,8504.00
2019-04-29T10:06:48.956Z,8668.00
2019-04-29T10:07:48.870Z,10060.00
2019-04-29T10:08:48.781Z,9700.00
2019-04-29T10:09:57.087Z,10508.00
2019-04-29T10:10:48.618Z,8856.00
2019-04-29T10:11:48.556Z,7568.00
2019-04-29T10:12:48.457Z,10224.00
2019-04-29T10:13:48.386Z,9340.00
2019-04-29T10:14:48.293Z,9368.00
2019-04-29T10:15:48.219Z,8776.00
2019-04-29T10:16:49.868Z,7544.00
2019-04-29T10:17:50.988Z,8600.00
2019-04-29T10:18:47.968Z,8216.00
2019-04-29T10:19:47.882Z,8228.00
2019-04-29T10:20:47.807Z,7996.00
2019-04-29T10:21:47.719Z,9216.00
2019-04-29T10:22:50.148Z,7252.00
2019-04-29T10:23:47.558Z,7620.00
2019-04-29T10:24:47.482Z,7744.00
2019-04-29T10:25:47.394Z,9216.00
2019-04-29T10:26:47.308Z,8552.00
2019-04-29T10:27:47.235Z,8380.00
2019-04-29T10:28:47.145Z,8372.00
2019-04-29T10:29:50.769Z,7560.00
2019-04-29T10:30:46.983Z,7500.00
2019-04-29T10:31:46.909Z,7304.00
2019-04-29T10:32:46.822Z,7932.00
2019-04-29T10:33:50.240Z,7088.00
2019-04-29T10:34:46.658Z,7000.00
2019-04-29T10:35:46.611Z,7336.00
2019-04-29T10:36:46.495Z,5824.00
2019-04-29T10:37:46.411Z,6212.00
2019-04-29T10:38:46.334Z,6584.00
2019-04-29T10:39:46.245Z,6136.00
2019-04-29T10:40:46.173Z,6764.00
2019-04-29T10:41:46.084Z,8816.00
2019-04-29T10:42:46.010Z,7684.00
2019-04-29T10:43:49.370Z,7176.00
2019-04-29T10:44:45.835Z,9576.00
2019-04-29T10:45:45.766Z,9440.00
2019-04-29T10:46:45.673Z,7644.00
2019-04-29T10:47:45.597Z,9044.00
2019-04-29T10:48:45.510Z,7468.00
2019-04-29T10:49:45.437Z,6388.00
2019-04-29T10:50:47.088Z,9908.00
2019-04-29T10:51:45.272Z,8636.00
2019-04-29T10:52:45.185Z,6968.00
2019-04-29T10:53:46.634Z,7832.00
2019-04-29T10:54:45.023Z,7624.00
2019-04-29T10:55:44.937Z,7476.00
2019-04-29T10:56:44.863Z,9396.00
2019-04-29T10:57:49.391Z,8264.00
2019-04-29T10:58:44.698Z,8948.00
2019-04-29T10:59:44.926Z,10788.00
2019-04-29T11:00:44.525Z,9956.00
2019-04-29T11:01:44.449Z,9508.00
2019-04-29T11:02:44.846Z,10116.00
2019-04-29T11:03:44.286Z,12728.00
2019-04-29T11:04:44.199Z,13496.00
2019-04-29T11:06:00.020Z,10704.00
2019-04-29T11:06:44.177Z,9392.00
2019-04-29T11:07:43.968Z,8424.00
2019-04-29T11:08:43.874Z,10788.00
2019-04-29T11:09:46.359Z,10180.00
2019-04-29T11:10:43.713Z,9628.00
2019-04-29T11:11:43.626Z,11672.00
2019-04-29T11:12:43.551Z,7328.00
2019-04-29T11:13:47.057Z,8708.00
2019-04-29T11:14:43.388Z,9180.00
2019-04-29T11:15:44.998Z,10184.00
2019-04-29T11:16:46.671Z,11588.00
2019-04-29T11:17:44.428Z,8956.00
2019-04-29T11:18:43.064Z,10136.00
2019-04-29T11:19:42.975Z,10428.00
2019-04-29T11:20:44.617Z,10112.00
2019-04-29T11:21:42.814Z,8784.00
2019-04-29T11:22:44.564Z,9144.00
2019-04-29T11:23:42.651Z,10328.00
2019-04-29T11:24:42.564Z,10240.00
2019-04-29T11:25:42.489Z,10832.00
2019-04-29T11:26:44.727Z,11876.00
2019-04-29T11:27:42.326Z,9728.00
2019-04-29T11:28:42.242Z,10044.00
2019-04-29T11:29:42.168Z,10552.00
2019-04-29T11:30:42.076Z,9924.00
2019-04-29T11:31:42.007Z,12688.00
2019-04-29T11:32:41.915Z,11360.00
2019-04-29T11:33:41.842Z,9996.00
2019-04-29T11:34:41.751Z,8948.00
2019-04-29T11:35:41.682Z,10072.00
2019-04-29T11:36:44.102Z,11032.00
2019-04-29T11:37:41.520Z,10176.00
2019-04-29T11:38:41.444Z,8840.00
2019-04-29T11:39:41.352Z,9480.00
2019-04-29T11:40:43.657Z,7960.00
2019-04-29T11:41:41.192Z,9468.00
2019-04-29T11:42:41.729Z,11724.00
2019-04-29T11:43:41.040Z,10504.00
2019-04-29T11:44:40.941Z,11144.00
2019-04-29T11:45:40.866Z,8840.00
2019-04-29T11:46:44.475Z,9772.00
2019-04-29T11:47:40.703Z,13336.00
2019-04-29T11:48:40.616Z,9140.00
2019-04-29T11:49:40.541Z,15968.00
2019-04-29T11:50:40.453Z,9324.00
2019-04-29T11:52:04.846Z,11796.00
2019-04-29T11:52:40.292Z,9824.00
2019-04-29T11:53:40.216Z,9844.00
2019-04-29T11:54:40.129Z,8820.00
2019-04-29T11:55:42.430Z,9052.00
2019-04-29T11:56:39.968Z,11048.00
2019-04-29T11:57:41.141Z,9564.00
2019-04-29T11:58:39.805Z,7136.00
2019-04-29T11:59:39.733Z,7080.00
2019-04-29T12:00:39.643Z,7900.00
2019-04-29T12:01:42.952Z,7656.00
2019-04-29T12:02:45.208Z,7980.00
2019-04-29T12:03:39.415Z,7452.00
2019-04-29T12:04:41.992Z,8376.00
2019-04-29T12:05:40.249Z,9916.00
2019-04-29T12:06:39.155Z,10308.00
2019-04-29T12:07:39.081Z,9200.00
2019-04-29T12:08:38.993Z,11332.00
2019-04-29T12:09:38.920Z,11484.00
2019-04-29T12:10:46.685Z,11068.00
2019-04-29T12:11:38.756Z,11980.00
2019-04-29T12:12:38.712Z,11784.00
2019-04-29T12:13:38.593Z,12820.00
2019-04-29T12:14:39.157Z,13132.00
2019-04-29T12:15:38.430Z,12292.00
2019-04-29T12:16:38.344Z,11784.00
2019-04-29T12:17:38.270Z,13220.00
2019-04-29T12:18:39.742Z,12320.00
2019-04-29T12:19:38.145Z,14236.00
2019-04-29T12:20:38.020Z,14008.00
2019-04-29T12:21:37.947Z,13864.00
2019-04-29T12:22:48.242Z,13904.00
2019-04-29T12:23:37.795Z,13492.00
2019-04-29T12:24:37.699Z,12756.00
2019-04-29T12:25:37.621Z,13880.00